sensor_id;sensor_type;location;lat;lon;timestamp;pressure;altitude;pressure_sealevel;temperature;humidity
40384;BME280;26097;42.366;23.818;2023-04-07T00:00:06;93780.81;;;-0.40;69.62
40384;BME280;26097;42.366;23.818;2023-04-07T00:03:07;93786.44;;;-0.30;68.75
40384;BME280;26097;42.366;23.818;2023-04-07T00:06:08;93795.13;;;-0.34;69.07
40384;BME280;26097;42.366;23.818;2023-04-07T00:09:08;93791.81;;;-0.36;69.35
40384;BME280;26097;42.366;23.818;2023-04-07T00:12:10;93790.47;;;-0.47;69.92
40384;BME280;26097;42.366;23.818;2023-04-07T00:15:10;93784.41;;;-0.22;68.62
40384;BME280;26097;42.366;23.818;2023-04-07T00:18:11;93789.50;;;-0.22;68.57
40384;BME280;26097;42.366;23.818;2023-04-07T00:21:11;93782.38;;;-0.36;69.54
40384;BME280;26097;42.366;23.818;2023-04-07T00:24:11;93789.03;;;-0.32;68.73
40384;BME280;26097;42.366;23.818;2023-04-07T00:27:12;93776.63;;;-0.19;67.58
40384;BME280;26097;42.366;23.818;2023-04-07T00:30:12;93774.56;;;-0.10;67.27
40384;BME280;26097;42.366;23.818;2023-04-07T00:33:14;93778.56;;;-0.03;66.70
40384;BME280;26097;42.366;23.818;2023-04-07T00:36:15;93786.22;;;-0.03;66.77
40384;BME280;26097;42.366;23.818;2023-04-07T00:39:15;93774.53;;;-0.09;66.77
40384;BME280;26097;42.366;23.818;2023-04-07T00:42:16;93780.47;;;-0.08;66.59
40384;BME280;26097;42.366;23.818;2023-04-07T00:45:16;93776.88;;;-0.04;66.51
40384;BME280;26097;42.366;23.818;2023-04-07T00:48:16;93783.19;;;0.09;65.61
40384;BME280;26097;42.366;23.818;2023-04-07T00:51:20;93776.28;;;0.11;65.80
40384;BME280;26097;42.366;23.818;2023-04-07T00:54:24;93781.34;;;0.13;65.37
40384;BME280;26097;42.366;23.818;2023-04-07T00:57:24;93772.31;;;0.04;65.51
40384;BME280;26097;42.366;23.818;2023-04-07T01:00:26;93778.97;;;0.08;65.37
40384;BME280;26097;42.366;23.818;2023-04-07T01:03:35;93777.81;;;0.16;64.55
40384;BME280;26097;42.366;23.818;2023-04-07T01:06:43;93778.06;;;0.09;64.65
40384;BME280;26097;42.366;23.818;2023-04-07T01:09:48;93775.00;;;0.01;65.56
40384;BME280;26097;42.366;23.818;2023-04-07T01:13:04;93780.94;;;0.02;65.16
40384;BME280;26097;42.366;23.818;2023-04-07T01:16:10;93772.94;;;0.09;64.85
40384;BME280;26097;42.366;23.818;2023-04-07T01:19:33;93771.47;;;0.04;65.32
40384;BME280;26097;42.366;23.818;2023-04-07T01:22:46;93766.75;;;-0.07;66.04
40384;BME280;26097;42.366;23.818;2023-04-07T01:26:06;93767.94;;;0.06;64.80
40384;BME280;26097;42.366;23.818;2023-04-07T01:32:34;93766.50;;;-0.01;65.60
40384;BME280;26097;42.366;23.818;2023-04-07T01:35:36;93764.97;;;-0.05;65.85
40384;BME280;26097;42.366;23.818;2023-04-07T01:38:38;93755.50;;;-0.03;65.76
40384;BME280;26097;42.366;23.818;2023-04-07T01:41:40;93766.63;;;-0.04;65.81
40384;BME280;26097;42.366;23.818;2023-04-07T01:44:41;93759.63;;;0.01;65.53
40384;BME280;26097;42.366;23.818;2023-04-07T01:47:42;93763.91;;;0.01;65.25
40384;BME280;26097;42.366;23.818;2023-04-07T01:50:44;93760.44;;;0.02;65.01
40384;BME280;26097;42.366;23.818;2023-04-07T01:53:45;93757.69;;;0.06;64.76
40384;BME280;26097;42.366;23.818;2023-04-07T01:56:46;93749.09;;;0.07;64.82
40384;BME280;26097;42.366;23.818;2023-04-07T01:59:47;93753.84;;;0.17;64.03
40384;BME280;26097;42.366;23.818;2023-04-07T02:02:50;93755.25;;;0.03;64.73
40384;BME280;26097;42.366;23.818;2023-04-07T02:05:54;93757.50;;;-0.32;67.81
40384;BME280;26097;42.366;23.818;2023-04-07T02:09:03;93755.47;;;-0.46;67.97
40384;BME280;26097;42.366;23.818;2023-04-07T02:12:07;93765.19;;;-0.78;69.79
40384;BME280;26097;42.366;23.818;2023-04-07T02:15:09;93762.09;;;-0.87;69.55
40384;BME280;26097;42.366;23.818;2023-04-07T02:18:12;93760.78;;;-0.75;68.37
40384;BME280;26097;42.366;23.818;2023-04-07T02:21:14;93762.75;;;-0.59;68.13
40384;BME280;26097;42.366;23.818;2023-04-07T02:24:18;93765.03;;;-0.74;68.95
40384;BME280;26097;42.366;23.818;2023-04-07T02:27:20;93756.56;;;-0.76;68.72
40384;BME280;26097;42.366;23.818;2023-04-07T02:30:20;93757.78;;;-0.86;69.51
40384;BME280;26097;42.366;23.818;2023-04-07T02:33:21;93756.47;;;-0.96;70.34
40384;BME280;26097;42.366;23.818;2023-04-07T02:36:21;93752.94;;;-0.94;69.92
40384;BME280;26097;42.366;23.818;2023-04-07T02:39:22;93756.06;;;-1.09;71.82
40384;BME280;26097;42.366;23.818;2023-04-07T02:42:22;93754.00;;;-1.23;72.21
40384;BME280;26097;42.366;23.818;2023-04-07T02:45:24;93759.66;;;-1.39;73.45
40384;BME280;26097;42.366;23.818;2023-04-07T02:48:24;93758.13;;;-0.95;69.77
40384;BME280;26097;42.366;23.818;2023-04-07T02:51:24;93759.22;;;-1.03;71.03
40384;BME280;26097;42.366;23.818;2023-04-07T02:54:26;93763.28;;;-0.73;68.38
40384;BME280;26097;42.366;23.818;2023-04-07T02:57:26;93761.34;;;-0.66;67.58
40384;BME280;26097;42.366;23.818;2023-04-07T03:00:27;93761.34;;;-0.66;67.48
40384;BME280;26097;42.366;23.818;2023-04-07T03:03:27;93764.66;;;-0.64;67.38
40384;BME280;26097;42.366;23.818;2023-04-07T03:06:27;93761.91;;;-1.06;71.45
40384;BME280;26097;42.366;23.818;2023-04-07T03:09:28;93771.97;;;-1.01;70.38
40384;BME280;26097;42.366;23.818;2023-04-07T03:12:28;93769.47;;;-1.03;70.85
40384;BME280;26097;42.366;23.818;2023-04-07T03:15:28;93768.72;;;-1.30;73.49
40384;BME280;26097;42.366;23.818;2023-04-07T03:18:29;93775.53;;;-1.54;75.53
40384;BME280;26097;42.366;23.818;2023-04-07T03:21:29;93767.91;;;-1.31;73.93
40384;BME280;26097;42.366;23.818;2023-04-07T03:24:30;93776.78;;;-1.66;77.55
40384;BME280;26097;42.366;23.818;2023-04-07T03:27:31;93766.13;;;-1.54;76.84
40384;BME280;26097;42.366;23.818;2023-04-07T03:30:31;93778.72;;;-1.73;78.03
40384;BME280;26097;42.366;23.818;2023-04-07T03:33:32;93775.31;;;-1.48;74.70
40384;BME280;26097;42.366;23.818;2023-04-07T03:36:32;93779.75;;;-1.53;75.83
40384;BME280;26097;42.366;23.818;2023-04-07T03:39:34;93775.09;;;-1.93;80.81
40384;BME280;26097;42.366;23.818;2023-04-07T03:42:36;93770.69;;;-2.14;83.53
40384;BME280;26097;42.366;23.818;2023-04-07T03:45:37;93778.13;;;-2.35;86.36
40384;BME280;26097;42.366;23.818;2023-04-07T03:48:37;93771.59;;;-2.44;86.85
40384;BME280;26097;42.366;23.818;2023-04-07T03:51:38;93781.94;;;-2.49;86.83
40384;BME280;26097;42.366;23.818;2023-04-07T03:54:38;93788.81;;;-2.51;87.75
40384;BME280;26097;42.366;23.818;2023-04-07T03:57:38;93786.28;;;-2.52;88.49
40384;BME280;26097;42.366;23.818;2023-04-07T04:00:39;93792.81;;;-2.44;88.67
40384;BME280;26097;42.366;23.818;2023-04-07T04:03:40;93785.53;;;-2.56;92.00
40384;BME280;26097;42.366;23.818;2023-04-07T04:06:40;93785.72;;;-2.34;89.72
40384;BME280;26097;42.366;23.818;2023-04-07T04:09:40;93786.72;;;-2.11;88.25
40384;BME280;26097;42.366;23.818;2023-04-07T04:12:41;93795.00;;;-2.03;87.33
40384;BME280;26097;42.366;23.818;2023-04-07T04:15:41;93790.81;;;-2.05;87.75
40384;BME280;26097;42.366;23.818;2023-04-07T04:18:42;93796.56;;;-2.25;91.63
40384;BME280;26097;42.366;23.818;2023-04-07T04:21:43;93801.97;;;-2.36;92.19
40384;BME280;26097;42.366;23.818;2023-04-07T04:24:43;93805.69;;;-2.47;96.75
40384;BME280;26097;42.366;23.818;2023-04-07T04:27:43;93808.44;;;-2.53;99.31
40384;BME280;26097;42.366;23.818;2023-04-07T04:30:44;93809.25;;;-2.52;97.66
40384;BME280;26097;42.366;23.818;2023-04-07T04:33:45;93812.66;;;-2.52;98.25
40384;BME280;26097;42.366;23.818;2023-04-07T04:36:45;93812.47;;;-2.46;98.83
40384;BME280;26097;42.366;23.818;2023-04-07T04:39:48;93821.81;;;-2.46;99.81
40384;BME280;26097;42.366;23.818;2023-04-07T04:42:48;93820.81;;;-2.40;100.00
40384;BME280;26097;42.366;23.818;2023-04-07T04:45:48;93817.16;;;-2.32;100.00
40384;BME280;26097;42.366;23.818;2023-04-07T04:48:50;93822.00;;;-2.24;100.00
40384;BME280;26097;42.366;23.818;2023-04-07T04:51:53;93818.34;;;-2.15;100.00
40384;BME280;26097;42.366;23.818;2023-04-07T04:54:54;93822.34;;;-2.06;100.00
40384;BME280;26097;42.366;23.818;2023-04-07T04:57:54;93824.56;;;-1.95;100.00
40384;BME280;26097;42.366;23.818;2023-04-07T05:00:54;93826.94;;;-1.64;100.00
40384;BME280;26097;42.366;23.818;2023-04-07T05:03:59;93830.00;;;-1.52;99.65
40384;BME280;26097;42.366;23.818;2023-04-07T05:07:00;93832.38;;;-1.22;96.19
40384;BME280;26097;42.366;23.818;2023-04-07T05:10:00;93826.88;;;-1.10;96.88
40384;BME280;26097;42.366;23.818;2023-04-07T05:13:01;93833.75;;;-0.63;85.13
40384;BME280;26097;42.366;23.818;2023-04-07T05:16:01;93826.97;;;-0.41;84.15
40384;BME280;26097;42.366;23.818;2023-04-07T05:19:04;93827.06;;;-0.21;83.48
40384;BME280;26097;42.366;23.818;2023-04-07T05:22:05;93828.72;;;0.03;81.64
40384;BME280;26097;42.366;23.818;2023-04-07T05:25:06;93826.22;;;0.23;76.60
40384;BME280;26097;42.366;23.818;2023-04-07T05:28:06;93835.97;;;0.36;74.90
40384;BME280;26097;42.366;23.818;2023-04-07T05:31:07;93828.19;;;0.60;70.74
40384;BME280;26097;42.366;23.818;2023-04-07T05:34:07;93832.72;;;0.74;69.84
40384;BME280;26097;42.366;23.818;2023-04-07T05:37:09;93829.16;;;0.98;67.91
40384;BME280;26097;42.366;23.818;2023-04-07T05:40:10;93827.50;;;1.17;67.47
40384;BME280;26097;42.366;23.818;2023-04-07T05:43:10;93831.00;;;1.35;65.82
40384;BME280;26097;42.366;23.818;2023-04-07T05:46:11;93827.00;;;1.48;64.60
40384;BME280;26097;42.366;23.818;2023-04-07T05:49:11;93821.97;;;1.64;65.69
40384;BME280;26097;42.366;23.818;2023-04-07T05:52:12;93827.81;;;1.68;63.61
40384;BME280;26097;42.366;23.818;2023-04-07T05:55:13;93827.13;;;1.83;63.28
40384;BME280;26097;42.366;23.818;2023-04-07T05:58:13;93830.72;;;1.98;62.30
40384;BME280;26097;42.366;23.818;2023-04-07T06:01:14;93827.78;;;2.06;61.63
40384;BME280;26097;42.366;23.818;2023-04-07T06:04:14;93829.56;;;2.23;61.01
40384;BME280;26097;42.366;23.818;2023-04-07T06:07:15;93822.31;;;2.32;60.97
40384;BME280;26097;42.366;23.818;2023-04-07T06:10:15;93825.88;;;2.47;60.37
40384;BME280;26097;42.366;23.818;2023-04-07T06:13:16;93823.09;;;2.51;60.83
40384;BME280;26097;42.366;23.818;2023-04-07T06:16:16;93822.63;;;2.61;59.34
40384;BME280;26097;42.366;23.818;2023-04-07T06:19:17;93819.84;;;2.65;59.73
40384;BME280;26097;42.366;23.818;2023-04-07T06:22:17;93821.88;;;2.76;59.46
40384;BME280;26097;42.366;23.818;2023-04-07T06:25:17;93811.44;;;2.79;59.59
40384;BME280;26097;42.366;23.818;2023-04-07T06:28:18;93815.97;;;2.92;59.20
40384;BME280;26097;42.366;23.818;2023-04-07T06:31:19;93817.16;;;3.02;58.68
40384;BME280;26097;42.366;23.818;2023-04-07T06:34:20;93818.75;;;3.05;57.45
40384;BME280;26097;42.366;23.818;2023-04-07T06:37:20;93816.16;;;3.22;57.16
40384;BME280;26097;42.366;23.818;2023-04-07T06:40:23;93805.34;;;3.32;56.57
40384;BME280;26097;42.366;23.818;2023-04-07T06:43:24;93808.31;;;3.57;56.01
40384;BME280;26097;42.366;23.818;2023-04-07T06:46:24;93818.97;;;3.67;56.58
40384;BME280;26097;42.366;23.818;2023-04-07T06:49:26;93808.38;;;3.72;55.79
40384;BME280;26097;42.366;23.818;2023-04-07T06:52:26;93816.47;;;3.66;56.74
40384;BME280;26097;42.366;23.818;2023-04-07T06:55:26;93813.97;;;3.80;55.99
40384;BME280;26097;42.366;23.818;2023-04-07T06:58:27;93812.91;;;3.84;55.99
40384;BME280;26097;42.366;23.818;2023-04-07T07:01:27;93818.22;;;4.13;54.33
40384;BME280;26097;42.366;23.818;2023-04-07T07:04:28;93820.13;;;4.10;53.32
40384;BME280;26097;42.366;23.818;2023-04-07T07:07:28;93821.78;;;4.27;54.08
40384;BME280;26097;42.366;23.818;2023-04-07T07:10:28;93820.22;;;4.24;53.46
40384;BME280;26097;42.366;23.818;2023-04-07T07:13:29;93817.94;;;4.34;53.21
40384;BME280;26097;42.366;23.818;2023-04-07T07:16:29;93823.19;;;4.63;53.14
40384;BME280;26097;42.366;23.818;2023-04-07T07:19:30;93829.91;;;4.51;53.29
40384;BME280;26097;42.366;23.818;2023-04-07T07:22:30;93822.22;;;4.50;53.02
40384;BME280;26097;42.366;23.818;2023-04-07T07:25:31;93823.88;;;4.51;53.28
40384;BME280;26097;42.366;23.818;2023-04-07T07:28:31;93835.28;;;4.63;52.60
40384;BME280;26097;42.366;23.818;2023-04-07T07:31:32;93831.50;;;4.68;52.78
40384;BME280;26097;42.366;23.818;2023-04-07T07:34:32;93829.72;;;4.54;52.80
40384;BME280;26097;42.366;23.818;2023-04-07T07:37:33;93826.66;;;4.78;52.02
40384;BME280;26097;42.366;23.818;2023-04-07T07:40:33;93844.84;;;4.77;51.90
40384;BME280;26097;42.366;23.818;2023-04-07T07:43:34;93830.75;;;4.82;51.68
40384;BME280;26097;42.366;23.818;2023-04-07T07:46:34;93819.81;;;5.22;51.94
40384;BME280;26097;42.366;23.818;2023-04-07T07:49:34;93825.16;;;5.48;50.87
40384;BME280;26097;42.366;23.818;2023-04-07T07:52:35;93821.84;;;5.46;51.28
40384;BME280;26097;42.366;23.818;2023-04-07T07:55:36;93825.00;;;5.37;51.43
40384;BME280;26097;42.366;23.818;2023-04-07T07:58:36;93834.13;;;5.57;51.18
40384;BME280;26097;42.366;23.818;2023-04-07T08:01:37;93821.38;;;5.54;51.56
40384;BME280;26097;42.366;23.818;2023-04-07T08:04:37;93839.59;;;5.52;50.19
40384;BME280;26097;42.366;23.818;2023-04-07T08:07:37;93824.91;;;5.53;49.93
40384;BME280;26097;42.366;23.818;2023-04-07T08:10:38;93818.34;;;5.76;50.71
40384;BME280;26097;42.366;23.818;2023-04-07T08:13:38;93819.06;;;5.78;50.10
40384;BME280;26097;42.366;23.818;2023-04-07T08:16:39;93819.84;;;5.51;49.79
40384;BME280;26097;42.366;23.818;2023-04-07T08:19:39;93824.97;;;5.66;50.05
40384;BME280;26097;42.366;23.818;2023-04-07T08:22:39;93821.28;;;5.84;49.23
40384;BME280;26097;42.366;23.818;2023-04-07T08:25:40;93816.94;;;5.85;49.11
40384;BME280;26097;42.366;23.818;2023-04-07T08:28:41;93815.34;;;5.97;50.01
40384;BME280;26097;42.366;23.818;2023-04-07T08:31:41;93809.50;;;6.22;50.22
40384;BME280;26097;42.366;23.818;2023-04-07T08:34:42;93819.28;;;6.45;48.30
40384;BME280;26097;42.366;23.818;2023-04-07T08:37:42;93813.31;;;6.44;47.80
40384;BME280;26097;42.366;23.818;2023-04-07T08:40:43;93799.47;;;6.58;48.45
40384;BME280;26097;42.366;23.818;2023-04-07T08:43:43;93800.94;;;6.75;48.81
40384;BME280;26097;42.366;23.818;2023-04-07T08:46:46;93797.59;;;6.60;47.32
40384;BME280;26097;42.366;23.818;2023-04-07T08:49:50;93797.84;;;6.83;46.66
40384;BME280;26097;42.366;23.818;2023-04-07T08:52:56;93799.56;;;7.10;47.77
40384;BME280;26097;42.366;23.818;2023-04-07T08:55:59;93803.06;;;7.35;47.20
40384;BME280;26097;42.366;23.818;2023-04-07T08:59:01;93808.03;;;7.38;46.39
40384;BME280;26097;42.366;23.818;2023-04-07T09:02:03;93803.69;;;7.25;45.32
40384;BME280;26097;42.366;23.818;2023-04-07T09:05:06;93797.13;;;7.58;45.64
40384;BME280;26097;42.366;23.818;2023-04-07T09:08:07;93801.16;;;7.63;45.37
40384;BME280;26097;42.366;23.818;2023-04-07T09:11:07;93802.63;;;7.54;44.04
40384;BME280;26097;42.366;23.818;2023-04-07T09:14:08;93807.63;;;7.70;44.93
40384;BME280;26097;42.366;23.818;2023-04-07T09:17:08;93806.34;;;7.89;44.66
40384;BME280;26097;42.366;23.818;2023-04-07T09:20:09;93791.13;;;8.08;44.17
40384;BME280;26097;42.366;23.818;2023-04-07T09:23:26;93800.38;;;8.24;42.20
40384;BME280;26097;42.366;23.818;2023-04-07T09:26:28;93794.84;;;8.17;44.82
40384;BME280;26097;42.366;23.818;2023-04-07T09:29:30;93798.03;;;8.45;44.83
40384;BME280;26097;42.366;23.818;2023-04-07T09:32:37;93797.06;;;8.59;43.80
40384;BME280;26097;42.366;23.818;2023-04-07T09:35:50;93800.38;;;8.24;41.91
40384;BME280;26097;42.366;23.818;2023-04-07T09:38:52;93779.72;;;8.60;42.87
40384;BME280;26097;42.366;23.818;2023-04-07T09:41:52;93787.88;;;9.02;42.90
40384;BME280;26097;42.366;23.818;2023-04-07T09:44:53;93784.00;;;9.08;42.81
40384;BME280;26097;42.366;23.818;2023-04-07T09:47:53;93782.25;;;9.42;43.54
40384;BME280;26097;42.366;23.818;2023-04-07T09:51:04;93781.41;;;9.19;42.82
40384;BME280;26097;42.366;23.818;2023-04-07T09:54:05;93788.72;;;9.14;43.15
40384;BME280;26097;42.366;23.818;2023-04-07T09:57:08;93788.75;;;9.37;43.54
40384;BME280;26097;42.366;23.818;2023-04-07T10:00:08;93790.41;;;9.61;43.73
40384;BME280;26097;42.366;23.818;2023-04-07T10:03:10;93779.19;;;9.37;43.35
40384;BME280;26097;42.366;23.818;2023-04-07T10:06:11;93776.22;;;9.88;42.38
40384;BME280;26097;42.366;23.818;2023-04-07T10:09:13;93779.63;;;9.99;41.59
40384;BME280;26097;42.366;23.818;2023-04-07T10:12:14;93782.25;;;9.88;42.87
40384;BME280;26097;42.366;23.818;2023-04-07T10:15:14;93784.25;;;9.96;42.71
40384;BME280;26097;42.366;23.818;2023-04-07T10:18:16;93787.19;;;10.14;42.45
40384;BME280;26097;42.366;23.818;2023-04-07T10:21:17;93781.91;;;10.48;41.77
40384;BME280;26097;42.366;23.818;2023-04-07T10:24:42;93788.31;;;10.77;39.70
40384;BME280;26097;42.366;23.818;2023-04-07T10:28:00;93778.75;;;10.45;39.07
40384;BME280;26097;42.366;23.818;2023-04-07T10:31:04;93771.78;;;10.11;40.61
40384;BME280;26097;42.366;23.818;2023-04-07T10:34:04;93781.84;;;10.71;40.00
40384;BME280;26097;42.366;23.818;2023-04-07T10:43:40;93786.78;;;11.38;38.55
40384;BME280;26097;42.366;23.818;2023-04-07T10:50:16;93778.88;;;10.97;38.50
40384;BME280;26097;42.366;23.818;2023-04-07T10:53:19;93786.09;;;10.72;39.04
40384;BME280;26097;42.366;23.818;2023-04-07T10:56:20;93774.28;;;11.32;38.98
40384;BME280;26097;42.366;23.818;2023-04-07T10:59:21;93764.69;;;11.11;39.98
40384;BME280;26097;42.366;23.818;2023-04-07T11:05:26;93780.72;;;10.85;39.10
40384;BME280;26097;42.366;23.818;2023-04-07T11:08:37;93778.72;;;10.77;38.31
40384;BME280;26097;42.366;23.818;2023-04-07T11:11:39;93770.13;;;10.65;38.91
40384;BME280;26097;42.366;23.818;2023-04-07T11:14:40;93771.44;;;10.15;38.98
40384;BME280;26097;42.366;23.818;2023-04-07T11:17:41;93779.03;;;10.51;39.88
40384;BME280;26097;42.366;23.818;2023-04-07T11:23:49;93773.84;;;11.05;38.82
40384;BME280;26097;42.366;23.818;2023-04-07T11:26:50;93776.66;;;11.45;38.68
40384;BME280;26097;42.366;23.818;2023-04-07T11:29:50;93776.63;;;10.92;38.29
40384;BME280;26097;42.366;23.818;2023-04-07T11:32:51;93764.03;;;10.97;37.96
40384;BME280;26097;42.366;23.818;2023-04-07T11:35:56;93776.72;;;11.23;38.31
40384;BME280;26097;42.366;23.818;2023-04-07T11:38:58;93777.41;;;11.25;38.21
40384;BME280;26097;42.366;23.818;2023-04-07T11:41:59;93778.78;;;11.92;38.00
40384;BME280;26097;42.366;23.818;2023-04-07T11:44:59;93788.41;;;11.81;37.70
40384;BME280;26097;42.366;23.818;2023-04-07T11:48:00;93778.41;;;11.13;38.56
40384;BME280;26097;42.366;23.818;2023-04-07T11:51:01;93786.41;;;11.42;38.44
40384;BME280;26097;42.366;23.818;2023-04-07T11:54:01;93781.53;;;11.28;39.42
40384;BME280;26097;42.366;23.818;2023-04-07T11:57:02;93778.72;;;10.77;39.65
40384;BME280;26097;42.366;23.818;2023-04-07T12:00:09;93791.41;;;10.26;40.28
40384;BME280;26097;42.366;23.818;2023-04-07T12:03:11;93777.09;;;10.21;41.57
40384;BME280;26097;42.366;23.818;2023-04-07T12:06:25;93775.03;;;9.80;40.88
40384;BME280;26097;42.366;23.818;2023-04-07T12:09:32;93779.28;;;9.81;41.64
40384;BME280;26097;42.366;23.818;2023-04-07T12:12:36;93789.25;;;9.53;42.09
40384;BME280;26097;42.366;23.818;2023-04-07T12:15:37;93781.91;;;9.58;42.44
40384;BME280;26097;42.366;23.818;2023-04-07T12:18:37;93796.69;;;9.81;41.85
40384;BME280;26097;42.366;23.818;2023-04-07T12:21:37;93786.06;;;9.61;42.89
40384;BME280;26097;42.366;23.818;2023-04-07T12:24:38;93796.31;;;9.63;42.38
40384;BME280;26097;42.366;23.818;2023-04-07T12:27:38;93790.88;;;9.77;42.26
40384;BME280;26097;42.366;23.818;2023-04-07T12:30:38;93792.97;;;10.18;41.45
40384;BME280;26097;42.366;23.818;2023-04-07T12:33:39;93798.59;;;10.57;41.41
40384;BME280;26097;42.366;23.818;2023-04-07T12:36:39;93790.97;;;10.65;40.69
40384;BME280;26097;42.366;23.818;2023-04-07T12:39:40;93790.56;;;10.81;40.20
40384;BME280;26097;42.366;23.818;2023-04-07T12:42:40;93788.47;;;10.96;40.13
40384;BME280;26097;42.366;23.818;2023-04-07T12:45:41;93781.78;;;11.25;39.70
40384;BME280;26097;42.366;23.818;2023-04-07T12:48:42;93789.50;;;10.84;40.84
40384;BME280;26097;42.366;23.818;2023-04-07T12:51:43;93795.38;;;10.09;41.93
40384;BME280;26097;42.366;23.818;2023-04-07T12:54:43;93800.09;;;9.81;42.79
40384;BME280;26097;42.366;23.818;2023-04-07T12:57:44;93799.91;;;10.51;41.52
40384;BME280;26097;42.366;23.818;2023-04-07T13:00:45;93801.81;;;10.82;41.48
40384;BME280;26097;42.366;23.818;2023-04-07T13:03:48;93803.22;;;10.86;40.76
40384;BME280;26097;42.366;23.818;2023-04-07T13:06:49;93812.94;;;10.84;41.09
40384;BME280;26097;42.366;23.818;2023-04-07T13:09:50;93798.25;;;10.83;41.76
40384;BME280;26097;42.366;23.818;2023-04-07T13:12:50;93813.06;;;10.50;41.07
40384;BME280;26097;42.366;23.818;2023-04-07T13:15:51;93817.59;;;10.13;42.33
40384;BME280;26097;42.366;23.818;2023-04-07T13:18:52;93808.13;;;10.68;42.22
40384;BME280;26097;42.366;23.818;2023-04-07T13:21:52;93805.69;;;10.88;41.18
40384;BME280;26097;42.366;23.818;2023-04-07T13:24:53;93819.72;;;11.08;40.45
40384;BME280;26097;42.366;23.818;2023-04-07T13:27:53;93805.78;;;11.40;41.29
40384;BME280;26097;42.366;23.818;2023-04-07T13:30:53;93807.94;;;11.35;41.05
40384;BME280;26097;42.366;23.818;2023-04-07T13:33:54;93813.75;;;12.00;40.56
40384;BME280;26097;42.366;23.818;2023-04-07T13:36:54;93822.56;;;11.78;39.74
40384;BME280;26097;42.366;23.818;2023-04-07T13:39:55;93825.72;;;11.41;40.79
40384;BME280;26097;42.366;23.818;2023-04-07T13:42:55;93829.56;;;11.47;41.63
40384;BME280;26097;42.366;23.818;2023-04-07T13:45:59;93835.06;;;11.22;41.62
40384;BME280;26097;42.366;23.818;2023-04-07T13:49:00;93832.44;;;10.68;42.27
40384;BME280;26097;42.366;23.818;2023-04-07T13:52:00;93834.88;;;10.49;42.83
40384;BME280;26097;42.366;23.818;2023-04-07T13:55:01;93829.41;;;10.40;43.62
40384;BME280;26097;42.366;23.818;2023-04-07T13:58:03;93844.09;;;10.53;44.40
40384;BME280;26097;42.366;23.818;2023-04-07T14:01:03;93844.56;;;10.35;44.40
40384;BME280;26097;42.366;23.818;2023-04-07T14:04:04;93832.53;;;10.23;45.10
40384;BME280;26097;42.366;23.818;2023-04-07T14:07:05;93850.25;;;10.40;44.35
40384;BME280;26097;42.366;23.818;2023-04-07T14:10:06;93846.47;;;10.22;44.42
40384;BME280;26097;42.366;23.818;2023-04-07T14:13:06;93842.03;;;10.68;44.23
40384;BME280;26097;42.366;23.818;2023-04-07T14:16:06;93848.94;;;10.90;44.28
40384;BME280;26097;42.366;23.818;2023-04-07T14:19:07;93851.03;;;10.96;44.06
40384;BME280;26097;42.366;23.818;2023-04-07T14:22:07;93847.06;;;11.35;43.39
40384;BME280;26097;42.366;23.818;2023-04-07T14:25:08;93847.66;;;11.38;43.58
40384;BME280;26097;42.366;23.818;2023-04-07T14:28:09;93849.00;;;11.11;43.27
40384;BME280;26097;42.366;23.818;2023-04-07T14:31:14;93850.25;;;10.52;44.73
40384;BME280;26097;42.366;23.818;2023-04-07T14:34:15;93860.69;;;9.95;45.55
40384;BME280;26097;42.366;23.818;2023-04-07T14:37:15;93870.25;;;9.71;46.10
40384;BME280;26097;42.366;23.818;2023-04-07T14:40:17;93856.63;;;9.34;47.16
40384;BME280;26097;42.366;23.818;2023-04-07T14:43:20;93872.16;;;9.11;46.87
40384;BME280;26097;42.366;23.818;2023-04-07T14:46:24;93861.38;;;9.63;46.31
40384;BME280;26097;42.366;23.818;2023-04-07T14:49:26;93867.69;;;9.94;45.33
40384;BME280;26097;42.366;23.818;2023-04-07T14:52:28;93871.06;;;9.49;45.83
40384;BME280;26097;42.366;23.818;2023-04-07T14:55:30;93882.78;;;9.08;46.46
40384;BME280;26097;42.366;23.818;2023-04-07T14:58:31;93885.09;;;8.99;46.44
40384;BME280;26097;42.366;23.818;2023-04-07T15:01:31;93892.25;;;9.09;45.40
40384;BME280;26097;42.366;23.818;2023-04-07T15:04:32;93887.38;;;9.04;45.84
40384;BME280;26097;42.366;23.818;2023-04-07T15:07:32;93891.47;;;8.95;45.97
40384;BME280;26097;42.366;23.818;2023-04-07T15:10:33;93892.00;;;8.76;46.30
40384;BME280;26097;42.366;23.818;2023-04-07T15:13:35;93894.63;;;8.26;47.14
40384;BME280;26097;42.366;23.818;2023-04-07T15:16:35;93909.94;;;7.92;47.57
40384;BME280;26097;42.366;23.818;2023-04-07T15:19:36;93907.72;;;7.72;48.33
40384;BME280;26097;42.366;23.818;2023-04-07T15:22:36;93902.25;;;7.64;49.24
40384;BME280;26097;42.366;23.818;2023-04-07T15:25:38;93900.97;;;7.44;49.93
40384;BME280;26097;42.366;23.818;2023-04-07T15:28:38;93913.91;;;7.18;50.42
40384;BME280;26097;42.366;23.818;2023-04-07T15:31:39;93903.16;;;6.97;51.30
40384;BME280;26097;42.366;23.818;2023-04-07T15:34:39;93938.06;;;6.78;52.02
40384;BME280;26097;42.366;23.818;2023-04-07T15:37:39;93926.00;;;6.50;53.07
40384;BME280;26097;42.366;23.818;2023-04-07T15:40:40;93932.34;;;6.31;53.07
40384;BME280;26097;42.366;23.818;2023-04-07T15:43:41;93924.56;;;6.31;53.62
40384;BME280;26097;42.366;23.818;2023-04-07T15:46:41;93933.47;;;6.12;53.99
40384;BME280;26097;42.366;23.818;2023-04-07T15:49:41;93928.94;;;6.02;54.95
40384;BME280;26097;42.366;23.818;2023-04-07T15:52:42;93939.44;;;5.84;54.92
40384;BME280;26097;42.366;23.818;2023-04-07T15:55:42;93953.00;;;5.73;55.52
40384;BME280;26097;42.366;23.818;2023-04-07T15:58:43;93946.03;;;5.59;56.23
40384;BME280;26097;42.366;23.818;2023-04-07T16:01:45;93950.09;;;5.49;56.87
40384;BME280;26097;42.366;23.818;2023-04-07T16:04:45;93951.28;;;5.43;57.56
40384;BME280;26097;42.366;23.818;2023-04-07T16:07:47;93956.81;;;5.37;57.38
40384;BME280;26097;42.366;23.818;2023-04-07T16:10:47;93961.59;;;5.28;57.98
40384;BME280;26097;42.366;23.818;2023-04-07T16:13:47;93965.44;;;5.21;58.91